Decoded Metar for KEKX (ELIZABETH in KY, USA) (IATA:EKX) | Meteo·Mobile Aviation Weather
aviador You're here:

KEKX Decoded Metar

ELIZABETH in KY, USA
Report Time2019-10-20 23:55:00
UTC Time2019-10-21 00:03:56
Flight Rules vfr VFR
Wind160° at 04 kt
W.Decomp.*RWY 23: 1.6 kt HW 3.7 kt LCW
Visibility9999 m
Phenomena:N/A
Clouds:N/A
Expected CloudBase > 1,600 ft AGL from Temp-Dew spread
CeilingNone
Temp17°C (ISA +3)
Dew Point13°C (77% RH)
AAT16.5°C
QNH1013 hPa
Density Alt1,371 ft
Elevation755 ft
Report Wrong Elevation
Raw Report
METAR KEKX 202355Z AUTO 16004KT 10SM CLR 17/13 A2992 RMK AO2 T01670129
10219 20167=

Extra information for KEKX:More info

Airport Information Weather charts Add Link Nearby Venues Social comments

AIRNAV info for KEKX